createdAt,value
2018-05-15T00:01:36.607Z,13.90
2018-05-15T00:04:04.089Z,14.73
2018-05-15T00:06:31.576Z,13.33
2018-05-15T00:08:59.061Z,13.50
2018-05-15T00:11:26.530Z,14.97
2018-05-15T00:13:54.035Z,13.33
2018-05-15T00:16:21.510Z,17.23
2018-05-15T00:18:48.998Z,15.50
2018-05-15T00:21:16.474Z,15.77
2018-05-15T00:23:43.955Z,14.30
2018-05-15T00:26:12.086Z,15.00
2018-05-15T00:28:39.569Z,15.47
2018-05-15T00:31:07.042Z,18.87
2018-05-15T00:33:34.530Z,15.73
2018-05-15T00:36:02.004Z,16.03
2018-05-15T00:38:29.496Z,15.37
2018-05-15T00:40:56.957Z,15.27
2018-05-15T00:43:24.444Z,15.70
2018-05-15T00:45:51.912Z,16.70
2018-05-15T00:48:19.392Z,16.73
2018-05-15T00:50:46.865Z,14.27
2018-05-15T00:53:14.362Z,16.20
2018-05-15T00:55:43.751Z,14.93
2018-05-15T00:58:11.267Z,16.27
2018-05-15T01:00:38.749Z,15.83
2018-05-15T01:03:06.236Z,15.10
2018-05-15T01:05:33.701Z,16.60
2018-05-15T01:08:01.190Z,16.80
2018-05-15T01:10:29.507Z,17.17
2018-05-15T01:12:57.000Z,17.97
2018-05-15T01:15:24.462Z,19.03
2018-05-15T01:17:51.965Z,18.07
2018-05-15T01:20:19.434Z,16.20
2018-05-15T01:22:46.902Z,18.30
2018-05-15T01:25:14.388Z,15.43
2018-05-15T01:27:41.850Z,16.53
2018-05-15T01:30:09.337Z,16.30
2018-05-15T01:32:36.806Z,19.97
2018-05-15T01:35:04.290Z,16.73
2018-05-15T01:37:31.751Z,15.90
2018-05-15T01:39:59.233Z,14.67
2018-05-15T01:42:26.694Z,15.47
2018-05-15T01:44:54.191Z,14.13
2018-05-15T01:47:21.678Z,15.63
2018-05-15T01:49:50.111Z,15.37
2018-05-15T01:52:17.618Z,17.97
2018-05-15T01:54:45.114Z,17.37
2018-05-15T01:57:12.629Z,15.37
2018-05-15T01:59:40.117Z,17.47
2018-05-15T02:02:07.582Z,15.73
2018-05-15T02:04:35.065Z,18.93
2018-05-15T02:07:02.536Z,19.80
2018-05-15T02:09:30.034Z,20.83
2018-05-15T02:11:57.498Z,21.27
2018-05-15T02:14:24.983Z,18.13
2018-05-15T02:16:52.455Z,21.47
2018-05-15T02:19:19.978Z,20.13
2018-05-15T02:21:47.442Z,30.80
2018-05-15T02:24:15.082Z,32.83
2018-05-15T02:26:42.558Z,37.83
2018-05-15T02:29:10.046Z,37.97
2018-05-15T02:31:37.521Z,39.73
2018-05-15T02:34:05.010Z,44.30
2018-05-15T02:36:32.478Z,42.00
2018-05-15T02:38:59.964Z,42.43
2018-05-15T02:41:27.426Z,33.50
2018-05-15T02:43:54.907Z,29.00
2018-05-15T02:46:22.430Z,29.20
2018-05-15T02:48:49.902Z,31.87
2018-05-15T02:51:17.393Z,35.77
2018-05-15T02:53:44.858Z,53.30
2018-05-15T02:56:12.346Z,53.70
2018-05-15T02:58:39.809Z,49.73
2018-05-15T03:01:07.294Z,62.57
2018-05-15T03:03:34.788Z,65.13
2018-05-15T03:06:02.282Z,77.57
2018-05-15T03:08:29.745Z,67.27
2018-05-15T03:10:57.232Z,63.27
2018-05-15T03:13:24.796Z,56.87
2018-05-15T03:15:52.282Z,64.33
2018-05-15T03:18:19.764Z,68.87
2018-05-15T03:20:47.271Z,71.07
2018-05-15T03:23:14.740Z,83.03
2018-05-15T03:25:42.230Z,65.37
2018-05-15T03:28:09.702Z,71.97
2018-05-15T03:30:37.189Z,86.73
2018-05-15T03:33:04.665Z,112.00
2018-05-15T03:35:32.149Z,108.17
2018-05-15T03:37:59.626Z,123.33
2018-05-15T03:40:27.125Z,129.50
2018-05-15T03:42:54.624Z,133.90
2018-05-15T03:45:22.125Z,129.97
2018-05-15T03:47:49.603Z,148.20
2018-05-15T03:50:17.097Z,151.27
2018-05-15T03:52:44.575Z,158.27
2018-05-15T03:55:12.075Z,151.53
2018-05-15T03:57:39.554Z,147.00
2018-05-15T04:03:12.733Z,158.07
2018-05-15T04:05:51.838Z,198.93
2018-05-15T04:08:19.320Z,166.57
2018-05-15T04:10:46.878Z,213.40
2018-05-15T04:13:14.309Z,206.43
2018-05-15T04:15:43.878Z,281.10
2018-05-15T04:18:11.358Z,188.00
2018-05-15T04:20:38.868Z,227.13
2018-05-15T04:23:06.371Z,182.23
2018-05-15T04:25:33.967Z,172.80
2018-05-15T04:28:01.457Z,200.37
2018-05-15T04:30:28.982Z,206.70
2018-05-15T04:32:56.466Z,216.73
2018-05-15T04:35:23.958Z,161.07
2018-05-15T04:37:51.456Z,171.00
2018-05-15T04:40:18.937Z,216.07
2018-05-15T04:42:46.449Z,261.33
2018-05-15T04:45:13.923Z,279.97
2018-05-15T04:47:41.433Z,286.63
2018-05-15T04:50:08.910Z,292.30
2018-05-15T04:52:36.410Z,234.27
2018-05-15T04:55:07.658Z,404.07
2018-05-15T04:57:35.159Z,411.53
2018-05-15T05:00:02.636Z,379.70
2018-05-15T05:02:30.134Z,245.77
2018-05-15T05:04:57.620Z,470.20
2018-05-15T05:07:25.134Z,335.67
2018-05-15T05:09:52.610Z,301.83
2018-05-15T05:12:20.102Z,325.20
2018-05-15T05:14:47.569Z,239.77
2018-05-15T05:17:15.070Z,330.17
2018-05-15T05:19:42.541Z,285.67
2018-05-15T05:22:10.039Z,247.70
2018-05-15T05:24:38.025Z,187.67
2018-05-15T05:27:05.555Z,158.27
2018-05-15T05:29:33.014Z,169.40
2018-05-15T05:32:00.533Z,148.27
2018-05-15T05:34:28.008Z,166.10
2018-05-15T05:36:55.506Z,120.53
2018-05-15T05:39:22.993Z,107.27
2018-05-15T05:41:50.482Z,100.17
2018-05-15T05:44:17.974Z,99.20
2018-05-15T05:46:45.461Z,98.37
2018-05-15T05:49:12.930Z,86.23
2018-05-15T05:51:40.472Z,93.97
2018-05-15T05:54:07.944Z,95.37
2018-05-15T05:56:35.446Z,93.50
2018-05-15T05:59:02.922Z,96.33
2018-05-15T06:01:30.418Z,101.50
2018-05-15T06:03:57.910Z,90.73
2018-05-15T06:06:25.382Z,99.27
2018-05-15T06:08:53.321Z,90.07
2018-05-15T06:11:20.797Z,92.27
2018-05-15T06:13:48.302Z,86.00
2018-05-15T06:16:15.781Z,82.53
2018-05-15T06:18:43.277Z,84.73
2018-05-15T06:21:10.745Z,83.70
2018-05-15T06:23:38.246Z,83.50
2018-05-15T06:26:05.713Z,78.70
2018-05-15T06:28:33.206Z,71.13
2018-05-15T06:31:00.675Z,76.00
2018-05-15T06:33:28.165Z,73.90
2018-05-15T06:35:55.645Z,83.40
2018-05-15T06:38:23.130Z,71.70
2018-05-15T06:40:50.604Z,69.77
2018-05-15T06:43:18.177Z,76.20
2018-05-15T06:45:45.653Z,79.93
2018-05-15T06:48:13.147Z,75.03
2018-05-15T06:50:40.626Z,80.67
2018-05-15T06:53:13.829Z,79.93
2018-05-15T06:55:41.302Z,74.13
2018-05-15T06:58:08.815Z,74.20
2018-05-15T07:00:36.286Z,72.97
2018-05-15T07:03:03.791Z,73.77
2018-05-15T07:05:31.262Z,68.33
2018-05-15T07:07:58.753Z,67.60
2018-05-15T07:10:26.234Z,68.13
2018-05-15T07:12:53.743Z,69.63
2018-05-15T07:15:21.234Z,68.97
2018-05-15T07:17:48.730Z,63.13
2018-05-15T07:20:16.423Z,70.23
2018-05-15T07:22:43.920Z,63.53
2018-05-15T07:25:11.390Z,61.87
2018-05-15T07:27:38.901Z,68.63
2018-05-15T07:30:06.381Z,62.23
2018-05-15T07:32:33.851Z,59.53
2018-05-15T07:35:01.346Z,56.30
2018-05-15T07:37:28.847Z,52.30
2018-05-15T07:39:56.334Z,46.73
2018-05-15T07:42:23.805Z,45.47
2018-05-15T07:44:51.301Z,41.70
2018-05-15T07:47:18.768Z,46.40
2018-05-15T07:49:46.269Z,46.90
2018-05-15T07:52:13.744Z,41.53
2018-05-15T07:54:41.233Z,45.90
2018-05-15T07:57:08.720Z,38.53
2018-05-15T07:59:36.220Z,38.10
2018-05-15T08:02:03.695Z,38.03
2018-05-15T08:04:31.196Z,37.43
2018-05-15T08:06:58.665Z,34.63
2018-05-15T08:09:26.148Z,38.37
2018-05-15T08:11:53.623Z,30.20
2018-05-15T08:14:21.116Z,31.07
2018-05-15T08:16:48.587Z,27.27
2018-05-15T08:19:16.078Z,31.77
2018-05-15T08:21:43.555Z,27.37
2018-05-15T08:24:11.886Z,23.47
2018-05-15T08:26:39.370Z,14.03
2018-05-15T08:29:06.894Z,17.10
2018-05-15T08:31:34.562Z,24.57
2018-05-15T08:34:02.083Z,12.53
2018-05-15T08:36:29.593Z,5.97
2018-05-15T08:38:57.138Z,9.43
2018-05-15T08:41:25.083Z,5.50
2018-05-15T08:43:52.558Z,9.53
2018-05-15T08:46:20.023Z,6.20
2018-05-15T08:48:47.982Z,6.30
2018-05-15T08:51:16.482Z,7.37
2018-05-15T08:53:44.462Z,5.13
2018-05-15T08:56:12.096Z,6.53
2018-05-15T08:58:39.598Z,8.30
2018-05-15T09:01:07.381Z,7.97
2018-05-15T09:03:34.889Z,7.30
2018-05-15T09:06:03.194Z,7.43
2018-05-15T09:08:31.002Z,7.23
2018-05-15T09:10:59.281Z,4.90
2018-05-15T09:13:26.762Z,9.13
2018-05-15T09:15:54.765Z,6.00
2018-05-15T09:18:22.572Z,7.80
2018-05-15T09:20:50.066Z,5.57
2018-05-15T09:23:17.618Z,8.47
2018-05-15T09:25:45.528Z,6.30
2018-05-15T09:28:13.035Z,7.30
2018-05-15T09:30:40.593Z,6.83
2018-05-15T09:33:08.058Z,6.50
2018-05-15T09:35:35.569Z,5.37
2018-05-15T09:38:03.410Z,9.03
2018-05-15T09:40:31.123Z,6.93
2018-05-15T09:42:58.644Z,5.27
2018-05-15T09:45:26.199Z,7.17
2018-05-15T09:47:53.913Z,6.00
2018-05-15T09:50:21.397Z,4.57
2018-05-15T09:52:49.121Z,8.23
2018-05-15T09:55:17.084Z,5.80
2018-05-15T09:57:44.667Z,5.87
2018-05-15T10:00:13.177Z,4.63
2018-05-15T10:02:41.573Z,6.03
2018-05-15T10:05:09.462Z,6.57
2018-05-15T10:07:37.217Z,7.97
2018-05-15T10:10:04.677Z,5.63
2018-05-15T10:12:32.178Z,6.10
2018-05-15T10:14:59.698Z,8.20
2018-05-15T10:17:27.605Z,6.50
2018-05-15T10:19:55.235Z,5.97
2018-05-15T10:22:22.718Z,8.60
2018-05-15T10:24:50.203Z,5.33
2018-05-15T10:27:17.683Z,5.23
2018-05-15T10:29:45.202Z,5.83
2018-05-15T10:32:12.759Z,5.53
2018-05-15T10:34:40.227Z,5.67
2018-05-15T10:37:07.710Z,4.50
2018-05-15T10:39:35.197Z,8.03
2018-05-15T10:42:02.958Z,5.97
2018-05-15T10:44:30.418Z,6.87
2018-05-15T10:46:57.911Z,6.07
2018-05-15T10:49:25.815Z,5.07
2018-05-15T10:51:53.574Z,6.63
2018-05-15T10:54:21.786Z,6.13
2018-05-15T10:56:49.299Z,7.07
2018-05-15T10:59:16.987Z,5.97
2018-05-15T11:01:44.517Z,4.73
2018-05-15T11:04:12.035Z,5.97
2018-05-15T11:06:39.771Z,6.10
2018-05-15T11:09:07.370Z,6.30
2018-05-15T11:11:35.213Z,5.20
2018-05-15T11:14:03.417Z,5.53
2018-05-15T11:16:30.894Z,5.37
2018-05-15T11:18:58.358Z,6.93
2018-05-15T11:21:37.965Z,5.03
2018-05-15T11:27:08.218Z,6.90
2018-05-15T11:29:35.685Z,9.33
2018-05-15T11:32:03.178Z,4.20
2018-05-15T11:34:30.650Z,4.77
2018-05-15T11:36:58.135Z,6.60
2018-05-15T11:39:25.594Z,5.53
2018-05-15T11:41:53.161Z,4.57
2018-05-15T11:44:20.570Z,6.03
2018-05-15T11:46:48.056Z,4.90
2018-05-15T11:49:16.189Z,4.43
2018-05-15T11:51:43.722Z,5.77
2018-05-15T11:54:10.502Z,4.20
2018-05-15T11:56:37.977Z,4.80
2018-05-15T11:59:05.450Z,4.10
2018-05-15T12:01:32.946Z,5.17
2018-05-15T12:04:00.471Z,4.67
2018-05-15T12:06:27.954Z,5.53
2018-05-15T12:08:55.378Z,5.47
2018-05-15T12:11:22.874Z,3.90
2018-05-15T12:13:50.330Z,7.97
2018-05-15T12:16:17.817Z,6.97
2018-05-15T12:18:45.303Z,4.90
2018-05-15T12:21:12.815Z,3.80
2018-05-15T12:23:40.296Z,5.30
2018-05-15T12:26:07.762Z,4.50
2018-05-15T12:28:35.261Z,4.70
2018-05-15T12:31:02.722Z,3.97
2018-05-15T12:33:30.206Z,5.13
2018-05-15T12:35:57.669Z,3.80
2018-05-15T12:38:25.155Z,4.93
2018-05-15T12:40:52.626Z,4.43
2018-05-15T12:43:20.108Z,5.17
2018-05-15T12:45:47.574Z,6.53
2018-05-15T12:48:15.079Z,3.90
2018-05-15T12:50:42.553Z,4.27
2018-05-15T12:53:10.038Z,3.70
2018-05-15T12:55:37.502Z,4.97
2018-05-15T12:58:04.979Z,6.43
2018-05-15T13:00:32.434Z,5.03
2018-05-15T13:03:00.405Z,4.53
2018-05-15T13:05:27.876Z,4.67
2018-05-15T13:07:55.362Z,5.37
2018-05-15T13:10:22.818Z,3.90
2018-05-15T13:12:50.303Z,4.00
2018-05-15T13:15:17.997Z,4.63
2018-05-15T13:17:45.478Z,4.00
2018-05-15T13:20:12.987Z,5.17
2018-05-15T13:22:40.470Z,5.95
2018-05-15T13:25:07.936Z,4.20
2018-05-15T13:27:35.425Z,4.18
2018-05-15T13:30:02.895Z,5.07
2018-05-15T13:32:30.389Z,4.45
2018-05-15T13:34:57.853Z,4.50
2018-05-15T13:37:25.334Z,4.10
2018-05-15T13:39:52.785Z,3.78
2018-05-15T13:42:20.334Z,5.15
2018-05-15T13:44:47.825Z,4.25
2018-05-15T13:47:15.294Z,6.28
2018-05-15T13:49:42.774Z,3.60
2018-05-15T13:52:10.229Z,5.78
2018-05-15T13:54:37.705Z,4.12
2018-05-15T13:57:05.163Z,4.68
2018-05-15T13:59:32.633Z,4.43
2018-05-15T14:02:00.093Z,4.93
2018-05-15T14:04:27.576Z,3.75
2018-05-15T14:06:55.040Z,6.45
2018-05-15T14:09:22.647Z,5.43
2018-05-15T14:11:50.119Z,4.53
2018-05-15T14:14:17.589Z,5.23
2018-05-15T14:16:45.053Z,8.23
2018-05-15T14:19:12.541Z,4.30
2018-05-15T14:21:40.029Z,5.70
2018-05-15T14:24:07.514Z,5.90
2018-05-15T14:26:34.986Z,6.82
2018-05-15T14:29:02.466Z,4.68
2018-05-15T14:31:30.000Z,7.30
2018-05-15T14:33:57.414Z,4.70
2018-05-15T14:36:24.879Z,6.72
2018-05-15T14:38:52.370Z,6.12
2018-05-15T14:41:31.839Z,4.25
2018-05-15T14:43:59.322Z,4.55
2018-05-15T14:46:26.887Z,3.90
2018-05-15T14:48:54.362Z,9.07
2018-05-15T14:51:37.009Z,4.75
2018-05-15T14:54:06.227Z,4.95
2018-05-15T14:56:33.686Z,4.72
2018-05-15T14:59:01.166Z,4.85
2018-05-15T15:01:28.621Z,4.20
2018-05-15T15:03:56.380Z,3.97
2018-05-15T15:06:23.843Z,4.55
2018-05-15T15:08:51.333Z,5.53
2018-05-15T15:11:18.795Z,5.95
2018-05-15T15:13:46.310Z,4.37
2018-05-15T15:16:13.781Z,4.55
2018-05-15T15:18:41.256Z,6.20
2018-05-15T15:21:09.067Z,4.85
2018-05-15T15:23:37.460Z,6.50
2018-05-15T15:26:04.914Z,6.62
2018-05-15T15:28:32.374Z,6.25
2018-05-15T15:30:59.849Z,4.93
2018-05-15T15:33:28.209Z,5.03
2018-05-15T15:35:56.056Z,5.37
2018-05-15T15:38:23.515Z,5.50
2018-05-15T15:40:51.007Z,3.95
2018-05-15T15:43:18.471Z,5.47
2018-05-15T15:45:45.955Z,4.75
2018-05-15T15:48:13.423Z,7.07
2018-05-15T15:50:41.125Z,4.65
2018-05-15T15:53:09.527Z,4.12
2018-05-15T15:55:37.005Z,4.27
2018-05-15T15:58:04.511Z,5.33
2018-05-15T16:00:32.989Z,7.27
2018-05-15T16:03:00.461Z,4.70
2018-05-15T16:05:28.350Z,7.70
2018-05-15T16:07:56.126Z,4.80
2018-05-15T16:10:24.309Z,4.50
2018-05-15T16:12:52.229Z,5.67
2018-05-15T16:15:19.713Z,5.27
2018-05-15T16:17:47.224Z,4.40
2018-05-15T16:20:14.744Z,9.37
2018-05-15T16:22:43.225Z,7.70
2018-05-15T16:25:10.746Z,5.43
2018-05-15T16:27:38.207Z,6.53
2018-05-15T16:30:05.738Z,4.33
2018-05-15T16:32:33.207Z,7.50
2018-05-15T16:35:00.991Z,5.80
2018-05-15T16:37:28.698Z,5.95
2018-05-15T16:39:56.616Z,7.28
2018-05-15T16:42:24.342Z,5.15
2018-05-15T16:44:53.909Z,9.52
2018-05-15T16:47:23.039Z,4.90
2018-05-15T16:49:50.511Z,9.07
2018-05-15T16:52:18.270Z,6.40
2018-05-15T16:54:45.777Z,5.07
2018-05-15T16:57:13.333Z,7.70
2018-05-15T16:59:40.821Z,6.73
2018-05-15T17:02:08.557Z,4.53
2018-05-15T17:04:37.059Z,7.07
2018-05-15T17:07:04.538Z,4.90
2018-05-15T17:09:32.225Z,7.53
2018-05-15T17:11:59.787Z,7.23
2018-05-15T17:14:28.434Z,5.83
2018-05-15T17:16:55.932Z,5.87
2018-05-15T17:19:23.732Z,5.20
2018-05-15T17:21:51.225Z,5.20
2018-05-15T17:24:18.725Z,6.43
2018-05-15T17:26:46.599Z,8.10
2018-05-15T17:29:14.469Z,9.07
2018-05-15T17:31:41.969Z,4.33
2018-05-15T17:34:09.490Z,9.07
2018-05-15T17:36:37.479Z,6.23
2018-05-15T17:39:04.976Z,5.23
2018-05-15T17:41:32.751Z,5.60
2018-05-15T17:44:00.240Z,7.53
2018-05-15T17:46:28.055Z,8.00
2018-05-15T17:48:55.566Z,7.33
2018-05-15T17:51:23.482Z,6.83
2018-05-15T17:53:51.251Z,6.70
2018-05-15T17:56:19.033Z,6.90
2018-05-15T17:58:46.609Z,4.77
2018-05-15T18:01:14.114Z,4.93
2018-05-15T18:03:41.602Z,5.57
2018-05-15T18:06:09.141Z,4.50
2018-05-15T18:08:37.049Z,5.50
2018-05-15T18:11:05.059Z,5.03
2018-05-15T18:13:32.858Z,7.97
2018-05-15T18:16:00.660Z,4.37
2018-05-15T18:18:28.138Z,6.63
2018-05-15T18:20:55.625Z,6.67
2018-05-15T18:23:23.163Z,8.43
2018-05-15T18:25:50.650Z,7.53
2018-05-15T18:28:18.209Z,7.43
2018-05-15T18:30:45.958Z,5.47
2018-05-15T18:33:13.506Z,4.87
2018-05-15T18:35:41.170Z,5.60
2018-05-15T18:38:08.926Z,5.50
2018-05-15T18:40:36.606Z,5.37
2018-05-15T18:43:04.094Z,9.10
2018-05-15T18:45:31.636Z,6.03
2018-05-15T18:47:59.095Z,5.27
2018-05-15T18:50:26.858Z,6.23
2018-05-15T18:52:54.393Z,7.20
2018-05-15T18:55:21.887Z,4.63
2018-05-15T18:57:49.966Z,7.07
2018-05-15T19:00:17.885Z,5.37
2018-05-15T19:02:45.858Z,6.97
2018-05-15T19:05:13.343Z,4.90
2018-05-15T19:07:40.825Z,6.57
2018-05-15T19:10:08.793Z,6.00
2018-05-15T19:12:36.705Z,6.43
2018-05-15T19:15:05.410Z,11.30
2018-05-15T19:17:33.010Z,6.30
2018-05-15T19:20:00.513Z,5.93
2018-05-15T19:22:28.446Z,7.77
2018-05-15T19:24:55.934Z,6.23
2018-05-15T19:27:23.730Z,6.63
2018-05-15T19:29:51.277Z,6.70
2018-05-15T19:32:18.758Z,8.80
2018-05-15T19:34:51.770Z,7.17
2018-05-15T19:37:19.487Z,5.90
2018-05-15T19:39:47.026Z,11.70
2018-05-15T19:42:14.867Z,5.83
2018-05-15T19:44:42.783Z,7.60
2018-05-15T19:47:10.671Z,8.13
2018-05-15T19:49:38.150Z,9.37
2018-05-15T19:52:05.870Z,5.97
2018-05-15T19:54:33.345Z,6.43
2018-05-15T19:57:01.282Z,5.47
2018-05-15T19:59:28.753Z,8.00
2018-05-15T20:01:56.774Z,5.73
2018-05-15T20:04:24.869Z,5.70
2018-05-15T20:06:52.330Z,5.73
2018-05-15T20:09:19.821Z,8.23
2018-05-15T20:11:47.522Z,5.57
2018-05-15T20:14:15.000Z,8.20
2018-05-15T20:16:42.469Z,6.77
2018-05-15T20:19:09.949Z,8.77
2018-05-15T20:21:37.435Z,9.23
2018-05-15T20:24:04.923Z,8.00
2018-05-15T20:26:32.382Z,5.97
2018-05-15T20:28:59.860Z,7.53
2018-05-15T20:31:27.334Z,7.33
2018-05-15T20:33:54.821Z,10.20
2018-05-15T20:36:22.278Z,8.70
2018-05-15T20:38:50.547Z,7.57
2018-05-15T20:41:18.019Z,7.37
2018-05-15T20:43:45.510Z,7.43
2018-05-15T20:46:12.966Z,7.23
2018-05-15T20:48:40.453Z,10.13
2018-05-15T20:51:07.911Z,10.23
2018-05-15T20:53:35.390Z,9.10
2018-05-15T20:56:02.850Z,9.20
2018-05-15T20:58:30.405Z,8.83
2018-05-15T21:00:57.822Z,10.57
2018-05-15T21:03:25.303Z,9.30
2018-05-15T21:05:52.761Z,10.40
2018-05-15T21:08:20.291Z,11.17
2018-05-15T21:10:47.758Z,11.00
2018-05-15T21:13:15.225Z,12.23
2018-05-15T21:15:42.717Z,12.47
2018-05-15T21:18:10.177Z,11.63
2018-05-15T21:20:37.645Z,9.87
2018-05-15T21:23:05.117Z,9.50
2018-05-15T21:25:32.598Z,10.87
2018-05-15T21:28:00.063Z,10.80
2018-05-15T21:30:27.545Z,13.63
2018-05-15T21:32:55.035Z,13.57
2018-05-15T21:35:22.526Z,11.30
2018-05-15T21:37:50.518Z,10.53
2018-05-15T21:40:18.079Z,12.33
2018-05-15T21:42:45.542Z,11.60
2018-05-15T21:45:13.013Z,11.10
2018-05-15T21:47:40.474Z,13.20
2018-05-15T21:50:07.950Z,11.00
2018-05-15T21:52:35.504Z,11.73
2018-05-15T21:55:03.005Z,13.27
2018-05-15T21:57:30.476Z,12.87
2018-05-15T21:59:58.689Z,12.67
2018-05-15T22:02:26.153Z,12.10
2018-05-15T22:04:54.743Z,10.90
2018-05-15T22:07:22.205Z,12.77
2018-05-15T22:09:49.694Z,12.97
2018-05-15T22:12:29.006Z,13.47
2018-05-15T22:15:08.265Z,11.57
2018-05-15T22:17:47.519Z,11.03
2018-05-15T22:20:26.725Z,10.70
2018-05-15T22:22:54.557Z,13.10
2018-05-15T22:25:22.053Z,13.70
2018-05-15T22:27:50.481Z,11.87
2018-05-15T22:30:17.978Z,12.10
2018-05-15T22:32:45.466Z,13.37
2018-05-15T22:35:12.946Z,13.53
2018-05-15T22:37:40.413Z,13.03
2018-05-15T22:40:07.897Z,13.20
2018-05-15T22:42:35.371Z,16.67
2018-05-15T22:45:02.851Z,14.90
2018-05-15T22:47:30.333Z,13.07
2018-05-15T22:49:57.801Z,14.07
2018-05-15T22:52:25.294Z,12.60
2018-05-15T22:54:52.766Z,12.10
2018-05-15T22:57:20.261Z,14.00
2018-05-15T22:59:47.734Z,13.00
2018-05-15T23:02:15.231Z,14.00
2018-05-15T23:04:42.706Z,12.40
2018-05-15T23:07:10.193Z,13.33
2018-05-15T23:09:37.662Z,13.03
2018-05-15T23:12:05.154Z,12.70
2018-05-15T23:14:32.615Z,13.43
2018-05-15T23:17:01.566Z,13.23
2018-05-15T23:19:29.034Z,13.80
2018-05-15T23:21:56.525Z,14.17
2018-05-15T23:24:23.986Z,13.50
2018-05-15T23:26:51.514Z,16.83
2018-05-15T23:29:19.095Z,13.77
2018-05-15T23:31:46.566Z,14.60
2018-05-15T23:34:14.033Z,15.80
2018-05-15T23:36:41.536Z,14.60
2018-05-15T23:39:09.007Z,22.70
2018-05-15T23:41:36.489Z,15.00
2018-05-15T23:44:03.959Z,12.83
2018-05-15T23:46:31.450Z,12.43
2018-05-15T23:48:58.921Z,12.33
2018-05-15T23:51:26.403Z,13.30
2018-05-15T23:53:53.865Z,11.80
2018-05-15T23:56:21.349Z,13.40
2018-05-15T23:58:48.819Z,11.33
